createdAt,value
2022-08-09T00:01:54.924Z,5.25
2022-08-09T00:04:34.655Z,3.25
2022-08-09T00:07:07.660Z,4.38
2022-08-09T00:09:39.521Z,3.73
2022-08-09T00:12:08.572Z,5.80
2022-08-09T00:14:39.262Z,9.40
2022-08-09T00:17:07.815Z,6.07
2022-08-09T00:19:37.171Z,7.10
2022-08-09T00:22:09.075Z,7.30
2022-08-09T00:24:39.689Z,4.93
2022-08-09T00:27:09.208Z,3.63
2022-08-09T00:30:23.335Z,4.33
2022-08-09T00:32:30.933Z,3.00
2022-08-09T00:34:59.566Z,3.53
2022-08-09T00:37:30.298Z,3.10
2022-08-09T00:40:09.229Z,3.80
2022-08-09T00:44:19.578Z,3.40
2022-08-09T00:45:30.563Z,3.87
2022-08-09T00:48:03.578Z,3.33
2022-08-09T00:50:32.504Z,3.50
2022-08-09T00:53:10.097Z,3.63
2022-08-09T00:56:04.060Z,2.80
2022-08-09T00:58:30.385Z,2.77
2022-08-09T01:01:08.715Z,3.33
2022-08-09T01:03:51.658Z,3.17
2022-08-09T01:06:53.357Z,3.00
2022-08-09T01:09:36.429Z,3.53
2022-08-09T01:12:14.233Z,3.30
2022-08-09T01:14:52.600Z,3.70
2022-08-09T01:17:30.186Z,3.03
2022-08-09T01:20:03.149Z,2.87
2022-08-09T01:22:48.282Z,3.43
2022-08-09T01:25:41.579Z,2.90
2022-08-09T01:28:13.809Z,3.05
2022-08-09T01:30:51.960Z,3.07
2022-08-09T01:33:27.890Z,3.10
2022-08-09T01:36:03.936Z,3.23
2022-08-09T01:38:36.596Z,3.43
2022-08-09T01:41:13.582Z,2.87
2022-08-09T01:43:52.003Z,2.83
2022-08-09T01:46:23.968Z,3.07
2022-08-09T01:48:57.303Z,3.63
2022-08-09T01:51:32.195Z,3.50
2022-08-09T01:54:05.272Z,3.20
2022-08-09T01:56:36.515Z,3.43
2022-08-09T01:59:11.408Z,3.10
2022-08-09T02:01:59.013Z,2.83
2022-08-09T02:04:31.420Z,3.10
2022-08-09T02:07:17.908Z,3.30
2022-08-09T02:10:05.712Z,3.13
2022-08-09T02:12:36.470Z,3.23
2022-08-09T02:15:08.526Z,3.50
2022-08-09T02:18:09.215Z,3.40
2022-08-09T02:20:36.917Z,3.30
2022-08-09T02:23:11.582Z,3.40
2022-08-09T02:25:52.447Z,3.13
2022-08-09T02:28:24.732Z,3.37
2022-08-09T02:31:03.054Z,3.23
2022-08-09T02:34:06.995Z,3.17
2022-08-09T02:36:31.522Z,3.30
2022-08-09T02:39:06.025Z,3.00
2022-08-09T02:41:41.773Z,3.13
2022-08-09T02:44:30.113Z,3.30
2022-08-09T02:47:05.641Z,3.77
2022-08-09T02:49:38.795Z,3.07
2022-08-09T02:52:15.850Z,3.70
2022-08-09T02:54:53.908Z,3.43
2022-08-09T02:57:25.568Z,3.53
2022-08-09T03:00:20.739Z,3.40
2022-08-09T03:03:00.221Z,3.50
2022-08-09T03:05:29.795Z,3.30
2022-08-09T03:08:04.342Z,3.17
2022-08-09T03:10:34.530Z,3.43
2022-08-09T03:13:08.607Z,3.60
2022-08-09T03:16:04.824Z,3.07
2022-08-09T03:18:31.083Z,3.77
2022-08-09T03:21:01.604Z,3.47
2022-08-09T03:23:30.086Z,3.37
2022-08-09T03:26:05.204Z,3.30
2022-08-09T03:28:37.135Z,3.50
2022-08-09T03:31:10.346Z,3.47
2022-08-09T03:33:54.572Z,3.37
2022-08-09T03:36:27.697Z,3.23
2022-08-09T03:38:56.558Z,3.33
2022-08-09T03:41:29.731Z,3.47
2022-08-09T03:44:12.985Z,3.00
2022-08-09T03:46:44.057Z,3.33
2022-08-09T03:49:17.357Z,3.40
2022-08-09T03:51:57.995Z,3.43
2022-08-09T03:54:32.300Z,3.43
2022-08-09T03:57:04.583Z,3.40
2022-08-09T03:59:53.802Z,3.40
2022-08-09T04:02:26.673Z,3.50
2022-08-09T04:05:06.521Z,3.53
2022-08-09T04:07:53.699Z,3.40
2022-08-09T04:10:30.383Z,3.60
2022-08-09T04:13:11.564Z,3.30
2022-08-09T04:16:20.915Z,3.43
2022-08-09T04:18:30.162Z,3.87
2022-08-09T04:21:02.133Z,3.53
2022-08-09T04:23:32.496Z,3.50
2022-08-09T04:26:01.687Z,3.37
2022-08-09T04:28:36.073Z,3.60
2022-08-09T04:31:09.548Z,3.53
2022-08-09T04:33:53.144Z,3.63
2022-08-09T04:36:28.598Z,3.50
2022-08-09T04:39:03.457Z,4.07
2022-08-09T04:41:33.814Z,3.60
2022-08-09T04:44:14.424Z,3.53
2022-08-09T04:46:58.124Z,3.67
2022-08-09T04:49:52.540Z,3.50
2022-08-09T04:52:26.446Z,3.70
2022-08-09T04:54:57.149Z,3.47
2022-08-09T04:57:26.179Z,3.63
2022-08-09T04:59:56.280Z,3.60
2022-08-09T05:02:27.215Z,4.00
2022-08-09T05:04:56.420Z,3.23
2022-08-09T05:07:29.373Z,3.67
2022-08-09T05:10:01.704Z,3.93
2022-08-09T05:12:33.258Z,3.70
2022-08-09T05:15:03.493Z,3.70
2022-08-09T05:18:38.647Z,3.00
2022-08-09T05:20:21.535Z,3.53
2022-08-09T05:23:55.731Z,3.43
2022-08-09T05:25:50.986Z,3.40
2022-08-09T05:28:20.257Z,3.07
2022-08-09T05:30:49.393Z,3.37
2022-08-09T05:33:20.263Z,3.37
2022-08-09T05:35:57.094Z,3.37
2022-08-09T05:38:27.905Z,3.20
2022-08-09T05:40:56.489Z,3.63
2022-08-09T05:43:31.709Z,3.30
2022-08-09T05:46:02.089Z,3.40
2022-08-09T05:48:32.861Z,3.40
2022-08-09T05:51:42.612Z,3.30
2022-08-09T05:53:58.040Z,3.40
2022-08-09T05:56:28.461Z,3.40
2022-08-09T05:58:58.882Z,3.23
2022-08-09T06:01:33.521Z,3.13
2022-08-09T06:04:05.656Z,3.50
2022-08-09T06:06:34.669Z,3.33
2022-08-09T06:09:23.276Z,3.10
2022-08-09T06:11:57.053Z,3.47
2022-08-09T06:14:26.484Z,3.53
2022-08-09T06:16:57.208Z,3.00
2022-08-09T06:19:27.471Z,3.20
2022-08-09T06:21:58.684Z,3.20
2022-08-09T06:24:30.411Z,3.20
2022-08-09T06:26:59.518Z,3.20
2022-08-09T06:29:27.941Z,2.80
2022-08-09T06:32:36.266Z,3.37
2022-08-09T06:34:48.046Z,3.60
2022-08-09T06:37:20.998Z,3.10
2022-08-09T06:40:05.628Z,3.27
2022-08-09T06:42:50.893Z,3.00
2022-08-09T06:46:04.740Z,3.30
2022-08-09T06:48:08.006Z,3.20
2022-08-09T06:50:37.785Z,3.47
2022-08-09T06:53:07.306Z,3.40
2022-08-09T06:55:38.090Z,3.27
2022-08-09T06:58:08.174Z,3.40
2022-08-09T07:00:59.564Z,3.23
2022-08-09T07:03:29.066Z,3.50
2022-08-09T07:06:03.966Z,3.27
2022-08-09T07:08:35.299Z,3.13
2022-08-09T07:11:12.580Z,2.80
2022-08-09T07:14:03.667Z,3.23
2022-08-09T07:16:44.515Z,2.80
2022-08-09T07:19:18.758Z,3.33
2022-08-09T07:21:58.810Z,2.97
2022-08-09T07:24:31.963Z,3.00
2022-08-09T07:27:26.446Z,3.00
2022-08-09T07:29:57.247Z,3.10
2022-08-09T07:32:33.652Z,2.77
2022-08-09T07:35:07.887Z,2.87
2022-08-09T07:37:43.566Z,2.90
2022-08-09T07:40:17.374Z,2.80
2022-08-09T07:42:55.515Z,2.78
2022-08-09T07:45:39.806Z,2.70
2022-08-09T07:48:28.414Z,3.10
2022-08-09T07:51:09.686Z,3.00
2022-08-09T07:54:06.904Z,2.80
2022-08-09T07:56:44.862Z,2.90
2022-08-09T07:59:33.765Z,2.70
2022-08-09T08:02:10.107Z,2.53
2022-08-09T08:04:39.384Z,3.17
2022-08-09T08:08:06.035Z,3.13
2022-08-09T08:10:07.488Z,2.70
2022-08-09T08:12:43.279Z,2.90
2022-08-09T08:15:18.522Z,2.78
2022-08-09T08:17:58.374Z,2.88
2022-08-09T08:20:32.882Z,3.00
2022-08-09T08:23:03.805Z,3.17
2022-08-09T08:25:50.353Z,2.67
2022-08-09T08:28:42.359Z,2.70
2022-08-09T08:31:16.103Z,2.88
2022-08-09T08:33:52.814Z,2.30
2022-08-09T08:36:29.640Z,2.60
2022-08-09T08:39:03.260Z,2.47
2022-08-09T08:41:50.785Z,2.78
2022-08-09T08:44:28.920Z,3.65
2022-08-09T08:47:04.401Z,2.80
2022-08-09T08:49:47.738Z,2.50
2022-08-09T08:52:52.767Z,2.50
2022-08-09T08:55:10.730Z,2.72
2022-08-09T08:57:42.225Z,2.65
2022-08-09T09:00:20.477Z,2.33
2022-08-09T09:03:02.793Z,2.22
2022-08-09T09:06:00.651Z,2.30
2022-08-09T09:08:30.065Z,2.83
2022-08-09T09:11:01.336Z,2.28
2022-08-09T09:13:34.631Z,2.45
2022-08-09T09:16:11.454Z,2.40
2022-08-09T09:18:48.113Z,2.20
2022-08-09T09:21:26.000Z,2.30
2022-08-09T09:23:58.450Z,2.17
2022-08-09T09:26:35.104Z,2.40
2022-08-09T09:29:11.155Z,2.47
2022-08-09T09:32:06.692Z,2.60
2022-08-09T09:34:44.699Z,2.45
2022-08-09T09:37:32.227Z,2.53
2022-08-09T09:40:02.857Z,2.22
2022-08-09T09:42:32.365Z,2.22
2022-08-09T09:45:03.379Z,2.67
2022-08-09T09:47:36.870Z,2.20
2022-08-09T09:50:15.811Z,2.03
2022-08-09T09:52:54.365Z,2.40
2022-08-09T09:55:32.586Z,2.00
2022-08-09T09:58:18.840Z,2.20
2022-08-09T10:00:54.116Z,2.10
2022-08-09T10:03:57.817Z,2.30
2022-08-09T10:06:32.457Z,2.13
2022-08-09T10:09:03.159Z,1.90
2022-08-09T10:12:14.761Z,2.53
2022-08-09T10:14:49.481Z,2.20
2022-08-09T10:17:40.589Z,2.00
2022-08-09T10:20:33.033Z,2.15
2022-08-09T10:23:24.353Z,2.20
2022-08-09T10:26:04.866Z,2.30
2022-08-09T10:28:40.457Z,2.22
2022-08-09T10:34:32.534Z,2.10
2022-08-09T10:36:57.348Z,2.03
2022-08-09T10:39:40.345Z,2.10
2022-08-09T10:42:10.472Z,1.75
2022-08-09T10:44:40.567Z,2.10
2022-08-09T10:48:19.580Z,2.33
2022-08-09T10:50:32.940Z,1.92
2022-08-09T10:53:10.923Z,1.90
2022-08-09T10:55:57.812Z,2.10
2022-08-09T10:58:33.809Z,2.20
2022-08-09T11:03:05.620Z,2.05
2022-08-09T11:04:30.528Z,1.90
2022-08-09T11:07:57.615Z,1.92
2022-08-09T11:11:00.600Z,1.95
2022-08-09T11:13:50.873Z,2.53
2022-08-09T11:16:40.991Z,2.25
2022-08-09T11:19:11.491Z,1.83
2022-08-09T11:22:10.708Z,1.90
2022-08-09T11:25:09.227Z,1.70
2022-08-09T11:28:03.112Z,1.77
2022-08-09T11:30:37.548Z,1.88
2022-08-09T11:33:13.270Z,1.90
2022-08-09T11:35:50.022Z,2.30
2022-08-09T11:38:28.868Z,1.90
2022-08-09T11:41:05.158Z,1.67
2022-08-09T11:43:43.254Z,2.10
2022-08-09T11:46:11.655Z,1.50
2022-08-09T11:48:50.669Z,1.75
2022-08-09T11:52:53.753Z,1.98
2022-08-09T11:54:28.617Z,1.60
2022-08-09T11:57:47.933Z,1.48
2022-08-09T12:00:27.326Z,1.58
2022-08-09T12:02:57.758Z,1.70
2022-08-09T12:05:37.992Z,1.60
2022-08-09T12:08:12.354Z,1.50
2022-08-09T12:10:48.429Z,1.75
2022-08-09T12:14:09.228Z,1.42
2022-08-09T12:16:37.161Z,1.70
2022-08-09T12:19:09.593Z,1.55
2022-08-09T12:21:50.406Z,1.70
2022-08-09T12:24:24.227Z,1.55
2022-08-09T12:29:13.568Z,1.60
2022-08-09T12:29:59.796Z,1.45
2022-08-09T12:32:36.101Z,1.60
2022-08-09T12:35:12.668Z,1.70
2022-08-09T12:37:51.727Z,1.48
2022-08-09T12:40:24.623Z,1.40
2022-08-09T12:42:54.285Z,1.85
2022-08-09T12:45:33.200Z,1.65
2022-08-09T12:48:11.029Z,1.40
2022-08-09T12:50:53.873Z,1.50
2022-08-09T12:53:35.145Z,1.60
2022-08-09T12:56:43.598Z,1.50
2022-08-09T12:59:10.182Z,1.50
2022-08-09T13:01:46.824Z,1.67
2022-08-09T13:04:35.959Z,1.48
2022-08-09T13:07:15.053Z,1.73
2022-08-09T13:09:55.962Z,1.85
2022-08-09T13:12:30.796Z,1.75
2022-08-09T13:15:09.055Z,1.60
2022-08-09T13:18:03.288Z,1.60
2022-08-09T13:20:37.288Z,1.70
2022-08-09T13:24:42.165Z,1.70
2022-08-09T13:26:49.970Z,1.60
2022-08-09T13:29:28.620Z,1.55
2022-08-09T13:32:17.630Z,1.60
2022-08-09T13:34:54.126Z,1.75
2022-08-09T13:37:24.541Z,1.80
2022-08-09T13:41:54.906Z,1.50
2022-08-09T13:43:05.108Z,2.30
2022-08-09T13:46:42.506Z,1.63
2022-08-09T13:48:26.271Z,1.83
2022-08-09T13:51:02.150Z,1.77
2022-08-09T13:53:42.997Z,1.83
2022-08-09T13:56:14.409Z,1.95
2022-08-09T13:58:46.918Z,1.80
2022-08-09T14:02:01.080Z,1.83
2022-08-09T14:04:11.270Z,1.73
2022-08-09T14:06:46.376Z,1.63
2022-08-09T14:09:16.552Z,1.70
2022-08-09T14:11:47.950Z,1.55
2022-08-09T14:14:26.257Z,2.13
2022-08-09T14:16:56.498Z,1.52
2022-08-09T14:19:33.301Z,1.80
2022-08-09T14:22:02.777Z,1.85
2022-08-09T14:24:33.787Z,1.70
2022-08-09T14:27:02.411Z,2.10
2022-08-09T14:30:15.185Z,1.60
2022-08-09T14:32:28.640Z,2.45
2022-08-09T14:34:59.550Z,1.88
2022-08-09T14:37:28.085Z,1.70
2022-08-09T14:39:58.632Z,1.80
2022-08-09T14:42:30.332Z,1.98
2022-08-09T14:46:38.826Z,1.65
2022-08-09T14:48:02.333Z,12.90
2022-08-09T14:50:32.664Z,4.47
2022-08-09T14:53:02.420Z,1.77
2022-08-09T14:55:33.140Z,1.77
2022-08-09T14:58:03.654Z,1.70
2022-08-09T15:00:36.202Z,1.63
2022-08-09T15:03:07.041Z,1.95
2022-08-09T15:05:36.469Z,1.60
2022-08-09T15:08:05.566Z,1.80
2022-08-09T15:10:36.586Z,1.90
2022-08-09T15:13:08.990Z,1.88
2022-08-09T15:15:39.747Z,1.60
2022-08-09T15:18:14.566Z,1.70
2022-08-09T15:22:00.593Z,1.70
2022-08-09T15:24:00.652Z,1.70
2022-08-09T15:26:30.881Z,1.95
2022-08-09T15:29:04.480Z,1.90
2022-08-09T15:31:41.450Z,1.70
2022-08-09T15:34:17.373Z,2.03
2022-08-09T15:37:01.033Z,1.90
2022-08-09T15:39:34.756Z,1.73
2022-08-09T15:42:05.674Z,1.80
2022-08-09T15:44:39.131Z,2.00
2022-08-09T15:47:13.932Z,2.00
2022-08-09T15:50:00.323Z,2.03
2022-08-09T15:52:32.273Z,1.90
2022-08-09T15:55:02.053Z,1.80
2022-08-09T15:57:44.410Z,1.60
2022-08-09T16:00:26.244Z,1.70
2022-08-09T16:02:57.156Z,2.00
2022-08-09T16:05:47.082Z,1.83
2022-08-09T16:08:30.078Z,2.28
2022-08-09T16:11:02.616Z,2.00
2022-08-09T16:14:02.619Z,2.10
2022-08-09T16:16:36.861Z,2.10
2022-08-09T16:19:10.243Z,2.03
2022-08-09T16:21:48.710Z,2.60
2022-08-09T16:24:33.678Z,1.95
2022-08-09T16:27:05.821Z,2.15
2022-08-09T16:29:50.643Z,2.85
2022-08-09T16:32:49.618Z,2.10
2022-08-09T16:35:57.188Z,1.85
2022-08-09T16:38:11.414Z,2.00
2022-08-09T16:40:41.550Z,3.17
2022-08-09T16:43:10.538Z,2.70
2022-08-09T16:45:44.049Z,2.60
2022-08-09T16:48:42.194Z,2.67
2022-08-09T16:51:08.062Z,1.80
2022-08-09T16:56:33.870Z,2.00
2022-08-09T16:59:06.709Z,2.10
2022-08-09T17:01:51.155Z,2.10
2022-08-09T17:04:28.175Z,2.33
2022-08-09T17:08:41.353Z,2.28
2022-08-09T17:09:49.314Z,1.92
2022-08-09T17:12:19.746Z,2.60
2022-08-09T17:14:51.494Z,1.70
2022-08-09T17:17:27.971Z,1.80
2022-08-09T17:20:33.218Z,2.17
2022-08-09T17:22:50.234Z,2.10
2022-08-09T17:25:23.579Z,2.42
2022-08-09T17:27:55.190Z,2.50
2022-08-09T17:30:30.620Z,2.10
2022-08-09T17:33:05.654Z,2.95
2022-08-09T17:35:51.046Z,2.25
2022-08-09T17:38:32.253Z,2.50
2022-08-09T17:41:03.471Z,2.22
2022-08-09T17:43:35.965Z,2.50
2022-08-09T17:46:09.630Z,2.30
2022-08-09T17:48:51.973Z,2.30
2022-08-09T17:51:22.149Z,2.20
2022-08-09T17:53:54.920Z,2.70
2022-08-09T17:56:26.784Z,2.00
2022-08-09T17:58:59.781Z,2.08
2022-08-09T18:01:41.230Z,2.63
2022-08-09T18:04:20.401Z,1.85
2022-08-09T18:06:54.821Z,3.10
2022-08-09T18:09:41.222Z,2.40
2022-08-09T18:12:17.410Z,2.55
2022-08-09T18:14:50.017Z,2.22
2022-08-09T18:17:27.104Z,2.50
2022-08-09T18:21:00.343Z,2.40
2022-08-09T18:23:05.772Z,2.50
2022-08-09T18:25:53.164Z,2.38
2022-08-09T18:30:42.269Z,2.53
2022-08-09T18:31:24.944Z,2.47
2022-08-09T18:34:01.719Z,2.30
2022-08-09T18:36:34.812Z,2.60
2022-08-09T18:39:06.863Z,2.13
2022-08-09T18:41:42.137Z,2.50
2022-08-09T18:44:22.854Z,2.65
2022-08-09T18:47:05.402Z,2.38
2022-08-09T18:49:41.445Z,2.20
2022-08-09T18:52:15.859Z,2.00
2022-08-09T18:54:52.424Z,2.40
2022-08-09T18:57:22.087Z,2.53
2022-08-09T18:59:55.499Z,2.83
2022-08-09T19:02:32.350Z,2.78
2022-08-09T19:05:19.707Z,3.08
2022-08-09T19:08:10.014Z,2.30
2022-08-09T19:10:42.044Z,2.70
2022-08-09T19:13:19.370Z,2.50
2022-08-09T19:15:53.118Z,2.70
2022-08-09T19:18:32.874Z,2.72
2022-08-09T19:21:09.832Z,2.40
2022-08-09T19:24:39.789Z,2.45
2022-08-09T19:26:32.394Z,2.70
2022-08-09T19:29:15.766Z,2.88
2022-08-09T19:31:51.704Z,3.10
2022-08-09T19:34:22.611Z,2.88
2022-08-09T19:36:54.014Z,3.17
2022-08-09T19:39:42.916Z,2.65
2022-08-09T19:42:29.325Z,2.80
2022-08-09T19:44:57.511Z,4.30
2022-08-09T19:47:27.117Z,3.10
2022-08-09T19:50:07.373Z,2.70
2022-08-09T19:52:51.303Z,2.55
2022-08-09T19:55:30.570Z,2.90
2022-08-09T19:58:16.743Z,2.63
2022-08-09T20:00:47.455Z,3.22
2022-08-09T20:04:16.841Z,3.13
2022-08-09T20:06:06.335Z,3.38
2022-08-09T20:08:51.437Z,3.25
2022-08-09T20:11:26.211Z,3.42
2022-08-09T20:13:55.296Z,3.10
2022-08-09T20:16:34.580Z,2.85
2022-08-09T20:19:47.627Z,3.88
2022-08-09T20:22:04.792Z,3.63
2022-08-09T20:24:41.444Z,4.07
2022-08-09T20:27:14.183Z,2.67
2022-08-09T20:29:46.225Z,2.90
2022-08-09T20:32:28.996Z,3.13
2022-08-09T20:35:01.361Z,3.40
2022-08-09T20:38:18.756Z,3.63
2022-08-09T20:40:26.940Z,3.80
2022-08-09T20:42:59.824Z,2.90
2022-08-09T20:46:01.923Z,3.20
2022-08-09T20:48:21.478Z,3.30
2022-08-09T20:50:55.820Z,3.05
2022-08-09T20:53:37.742Z,2.85
2022-08-09T20:56:20.187Z,3.03
2022-08-09T20:58:58.645Z,3.10
2022-08-09T21:01:34.114Z,2.80
2022-08-09T21:05:53.593Z,3.38
2022-08-09T21:07:11.273Z,3.10
2022-08-09T21:09:42.063Z,3.05
2022-08-09T21:12:18.471Z,3.42
2022-08-09T21:14:49.101Z,3.65
2022-08-09T21:18:11.713Z,3.72
2022-08-09T21:20:23.109Z,3.30
2022-08-09T21:22:55.874Z,3.25
2022-08-09T21:25:56.398Z,3.85
2022-08-09T21:28:34.635Z,3.97
2022-08-09T21:31:18.032Z,3.45
2022-08-09T21:33:56.622Z,3.67
2022-08-09T21:36:28.819Z,3.42
2022-08-09T21:38:59.517Z,3.58
2022-08-09T21:42:04.221Z,3.42
2022-08-09T21:44:34.323Z,3.13
2022-08-09T21:47:07.869Z,3.83
2022-08-09T21:49:42.640Z,3.03
2022-08-09T21:52:17.301Z,3.70
2022-08-09T21:54:50.820Z,3.70
2022-08-09T21:57:38.357Z,4.00
2022-08-09T22:00:18.034Z,3.42
2022-08-09T22:02:59.878Z,3.85
2022-08-09T22:05:35.800Z,3.38
2022-08-09T22:08:13.555Z,3.10
2022-08-09T22:11:49.809Z,3.42
2022-08-09T22:13:34.437Z,3.40
2022-08-09T22:16:07.703Z,3.10
2022-08-09T22:18:43.975Z,2.97
2022-08-09T22:21:24.482Z,2.67
2022-08-09T22:23:59.712Z,2.80
2022-08-09T22:26:35.375Z,3.30
2022-08-09T22:29:09.017Z,3.15
2022-08-09T22:31:50.287Z,3.05
2022-08-09T22:34:26.714Z,3.25
2022-08-09T22:36:57.454Z,3.20
2022-08-09T22:39:56.020Z,3.13
2022-08-09T22:42:21.501Z,3.00
2022-08-09T22:48:06.019Z,2.88
2022-08-09T22:48:13.621Z,3.20
2022-08-09T22:50:30.639Z,3.15
2022-08-09T22:52:59.317Z,3.33
2022-08-09T22:56:00.687Z,3.15
2022-08-09T22:58:32.511Z,3.17
2022-08-09T23:01:03.072Z,3.10
2022-08-09T23:04:04.302Z,3.13
2022-08-09T23:06:35.785Z,3.25
2022-08-09T23:09:05.691Z,3.38
2022-08-09T23:11:33.990Z,2.90
2022-08-09T23:14:04.274Z,2.97
2022-08-09T23:16:38.511Z,3.30
2022-08-09T23:19:07.074Z,3.15
2022-08-09T23:21:38.560Z,3.65
2022-08-09T23:24:15.233Z,3.25
2022-08-09T23:26:45.179Z,3.30
2022-08-09T23:29:14.210Z,3.63
2022-08-09T23:31:42.985Z,3.65
2022-08-09T23:34:11.575Z,3.80
2022-08-09T23:36:41.239Z,3.47
2022-08-09T23:39:10.332Z,3.53
2022-08-09T23:41:38.669Z,3.30
2022-08-09T23:44:07.395Z,3.47
2022-08-09T23:46:37.400Z,3.40
2022-08-09T23:49:06.064Z,3.38
2022-08-09T23:51:34.551Z,3.20
2022-08-09T23:54:07.248Z,3.25
2022-08-09T23:56:53.296Z,3.10
2022-08-09T23:59:24.326Z,3.05
